createdAt,value
2018-04-10T00:02:05.059Z,14.70
2018-04-10T00:04:32.616Z,14.70
2018-04-10T00:07:00.271Z,14.70
2018-04-10T00:09:27.902Z,14.70
2018-04-10T00:11:56.252Z,14.50
2018-04-10T00:14:23.808Z,14.50
2018-04-10T00:16:51.764Z,14.50
2018-04-10T00:19:20.095Z,14.20
2018-04-10T00:21:48.417Z,14.20
2018-04-10T00:24:16.036Z,14.20
2018-04-10T00:26:44.356Z,14.10
2018-04-10T00:29:11.945Z,14.10
2018-04-10T00:31:39.531Z,14.10
2018-04-10T00:34:07.880Z,13.90
2018-04-10T00:36:35.466Z,13.90
2018-04-10T00:39:03.868Z,13.90
2018-04-10T00:41:31.446Z,13.80
2018-04-10T00:43:59.054Z,13.90
2018-04-10T00:46:26.618Z,13.90
2018-04-10T00:48:54.191Z,13.90
2018-04-10T00:51:22.557Z,13.90
2018-04-10T00:53:50.110Z,13.90
2018-04-10T00:56:17.706Z,13.90
2018-04-10T00:58:45.274Z,13.90
2018-04-10T01:01:12.873Z,13.90
2018-04-10T01:03:40.445Z,13.80
2018-04-10T01:06:08.790Z,13.80
2018-04-10T01:08:36.406Z,13.80
2018-04-10T01:11:04.746Z,13.60
2018-04-10T01:13:32.308Z,13.50
2018-04-10T01:15:59.893Z,13.50
2018-04-10T01:18:27.472Z,13.60
2018-04-10T01:20:55.820Z,13.40
2018-04-10T01:23:23.462Z,13.40
2018-04-10T01:25:51.030Z,13.00
2018-04-10T01:28:18.659Z,12.90
2018-04-10T01:30:46.285Z,12.90
2018-04-10T01:33:13.839Z,12.80
2018-04-10T01:35:41.518Z,12.80
2018-04-10T01:38:09.867Z,12.80
2018-04-10T01:40:37.445Z,12.80
2018-04-10T01:43:05.017Z,12.80
2018-04-10T01:45:32.668Z,12.80
2018-04-10T01:48:00.259Z,12.70
2018-04-10T01:50:27.847Z,12.70
2018-04-10T01:52:55.419Z,12.70
2018-04-10T01:55:22.977Z,12.70
2018-04-10T01:57:50.523Z,12.70
2018-04-10T02:00:18.098Z,12.60
2018-04-10T02:02:45.665Z,12.60
2018-04-10T02:05:13.214Z,12.50
2018-04-10T02:07:40.799Z,12.50
2018-04-10T02:10:08.383Z,12.40
2018-04-10T02:12:36.760Z,12.20
2018-04-10T02:15:05.186Z,12.20
2018-04-10T02:17:32.758Z,12.20
2018-04-10T02:20:00.366Z,12.20
2018-04-10T02:22:28.744Z,12.00
2018-04-10T02:24:57.079Z,12.00
2018-04-10T02:27:24.635Z,12.00
2018-04-10T02:29:52.245Z,12.10
2018-04-10T02:32:19.826Z,12.10
2018-04-10T02:34:47.407Z,12.10
2018-04-10T02:37:14.980Z,12.10
2018-04-10T02:39:42.586Z,12.10
2018-04-10T02:42:10.162Z,12.10
2018-04-10T02:44:37.723Z,12.10
2018-04-10T02:47:06.070Z,12.10
2018-04-10T02:49:33.642Z,12.10
2018-04-10T02:52:01.226Z,12.10
2018-04-10T02:54:28.819Z,12.10
2018-04-10T02:56:56.379Z,12.10
2018-04-10T02:59:23.983Z,12.20
2018-04-10T03:01:52.322Z,12.20
2018-04-10T03:04:19.955Z,12.20
2018-04-10T03:06:47.522Z,12.20
2018-04-10T03:09:15.114Z,12.20
2018-04-10T03:11:42.702Z,12.20
2018-04-10T03:14:10.291Z,12.20
2018-04-10T03:16:37.850Z,12.20
2018-04-10T03:19:05.429Z,12.20
2018-04-10T03:21:32.992Z,12.20
2018-04-10T03:24:00.570Z,12.20
2018-04-10T03:26:28.133Z,12.20
2018-04-10T03:28:55.711Z,12.00
2018-04-10T03:31:23.306Z,12.00
2018-04-10T03:33:50.884Z,12.00
2018-04-10T03:36:18.483Z,12.00
2018-04-10T03:38:46.081Z,12.00
2018-04-10T03:41:14.398Z,12.00
2018-04-10T03:43:42.037Z,12.00
2018-04-10T03:46:09.589Z,12.00
2018-04-10T03:48:37.138Z,12.10
2018-04-10T03:51:05.504Z,12.20
2018-04-10T03:53:33.060Z,12.10
2018-04-10T03:56:00.610Z,12.20
2018-04-10T03:58:28.317Z,12.20
2018-04-10T04:00:55.864Z,12.20
2018-04-10T04:03:23.416Z,12.20
2018-04-10T04:05:51.801Z,12.30
2018-04-10T04:08:20.114Z,12.30
2018-04-10T04:10:47.659Z,12.30
2018-04-10T04:13:15.238Z,12.30
2018-04-10T04:15:42.788Z,12.30
2018-04-10T04:18:22.253Z,12.30
2018-04-10T04:21:01.524Z,12.40
2018-04-10T04:23:29.105Z,12.40
2018-04-10T04:25:56.855Z,12.30
2018-04-10T04:28:25.170Z,12.30
2018-04-10T04:30:52.729Z,12.20
2018-04-10T04:33:20.340Z,12.20
2018-04-10T04:35:47.900Z,12.00
2018-04-10T04:38:15.469Z,11.90
2018-04-10T04:40:43.988Z,11.70
2018-04-10T04:43:11.554Z,11.70
2018-04-10T04:45:39.118Z,11.70
2018-04-10T04:48:06.719Z,11.60
2018-04-10T04:50:34.305Z,11.60
2018-04-10T04:53:02.655Z,11.70
2018-04-10T04:55:30.293Z,11.70
2018-04-10T04:57:57.851Z,11.80
2018-04-10T05:00:25.438Z,12.00
2018-04-10T05:02:53.021Z,12.10
2018-04-10T05:05:20.627Z,12.30
2018-04-10T05:07:48.211Z,12.50
2018-04-10T05:10:15.789Z,12.80
2018-04-10T05:12:43.379Z,13.00
2018-04-10T05:15:10.982Z,13.20
2018-04-10T05:17:38.538Z,13.40
2018-04-10T05:20:06.119Z,13.60
2018-04-10T05:22:33.709Z,13.80
2018-04-10T05:25:02.039Z,14.20
2018-04-10T05:27:29.599Z,14.20
2018-04-10T05:29:57.253Z,14.40
2018-04-10T05:32:24.850Z,14.60
2018-04-10T05:34:52.424Z,14.90
2018-04-10T05:37:20.002Z,15.00
2018-04-10T05:39:47.605Z,15.10
2018-04-10T05:42:15.218Z,15.20
2018-04-10T05:44:43.532Z,15.60
2018-04-10T05:47:11.127Z,15.60
2018-04-10T05:49:38.673Z,15.80
2018-04-10T05:52:06.220Z,16.00
2018-04-10T05:54:34.613Z,16.20
2018-04-10T05:57:02.176Z,16.20
2018-04-10T05:59:29.765Z,16.50
2018-04-10T06:01:57.488Z,16.70
2018-04-10T06:04:25.046Z,16.90
2018-04-10T06:06:52.619Z,17.10
2018-04-10T06:09:20.315Z,17.30
2018-04-10T06:11:48.634Z,17.70
2018-04-10T06:14:16.219Z,17.70
2018-04-10T06:16:43.798Z,17.70
2018-04-10T06:19:11.367Z,17.90
2018-04-10T06:21:38.925Z,18.00
2018-04-10T06:24:06.486Z,18.30
2018-04-10T06:26:34.081Z,18.50
2018-04-10T06:29:01.629Z,18.80
2018-04-10T06:31:29.186Z,19.10
2018-04-10T06:33:57.549Z,19.10
2018-04-10T06:36:25.896Z,19.30
2018-04-10T06:38:53.613Z,19.30
2018-04-10T06:41:21.161Z,19.40
2018-04-10T06:43:49.474Z,19.40
2018-04-10T06:46:17.056Z,19.30
2018-04-10T06:48:44.641Z,19.50
2018-04-10T06:51:12.201Z,19.50
2018-04-10T06:53:39.815Z,19.60
2018-04-10T06:56:07.353Z,19.80
2018-04-10T06:58:35.730Z,20.40
2018-04-10T07:01:03.285Z,20.30
2018-04-10T07:03:31.607Z,20.90
2018-04-10T07:05:59.190Z,20.90
2018-04-10T07:08:26.779Z,21.20
2018-04-10T07:10:55.091Z,21.30
2018-04-10T07:13:22.826Z,21.30
2018-04-10T07:15:50.393Z,21.60
2018-04-10T07:18:17.972Z,21.80
2018-04-10T07:20:45.606Z,22.10
2018-04-10T07:23:13.961Z,22.00
2018-04-10T07:25:41.577Z,22.00
2018-04-10T07:28:09.153Z,22.40
2018-04-10T07:30:36.735Z,22.60
2018-04-10T07:33:04.317Z,22.80
2018-04-10T07:35:32.695Z,23.40
2018-04-10T07:38:01.025Z,23.50
2018-04-10T07:40:28.619Z,23.50
2018-04-10T07:42:56.204Z,23.70
2018-04-10T07:45:23.799Z,24.00
2018-04-10T07:47:51.360Z,24.30
2018-04-10T07:50:18.967Z,24.40
2018-04-10T07:52:46.538Z,24.50
2018-04-10T07:55:14.118Z,24.40
2018-04-10T07:57:41.684Z,24.60
2018-04-10T08:00:09.273Z,24.60
2018-04-10T08:02:36.849Z,24.90
2018-04-10T08:05:04.454Z,25.10
2018-04-10T08:07:32.815Z,25.20
2018-04-10T08:10:00.365Z,25.20
2018-04-10T08:12:27.954Z,25.10
2018-04-10T08:14:55.534Z,25.30
2018-04-10T08:17:23.120Z,25.30
2018-04-10T08:19:50.671Z,25.20
2018-04-10T08:22:18.271Z,25.20
2018-04-10T08:24:45.809Z,25.20
2018-04-10T08:27:13.371Z,24.90
2018-04-10T08:29:40.949Z,25.40
2018-04-10T08:32:08.506Z,25.70
2018-04-10T08:34:36.073Z,25.80
2018-04-10T08:37:03.647Z,26.00
2018-04-10T08:39:32.002Z,26.20
2018-04-10T08:41:59.546Z,26.20
2018-04-10T08:44:27.107Z,26.00
2018-04-10T08:46:54.722Z,25.70
2018-04-10T08:49:22.288Z,25.30
2018-04-10T08:51:49.909Z,25.70
2018-04-10T08:54:17.495Z,25.60
2018-04-10T08:56:45.829Z,25.70
2018-04-10T08:59:13.376Z,25.70
2018-04-10T09:01:40.973Z,25.70
2018-04-10T09:04:08.522Z,25.60
2018-04-10T09:06:36.066Z,25.90
2018-04-10T09:09:03.645Z,25.90
2018-04-10T09:11:31.196Z,25.40
2018-04-10T09:13:58.779Z,25.80
2018-04-10T09:16:26.338Z,26.00
2018-04-10T09:18:53.881Z,25.80
2018-04-10T09:21:21.478Z,25.70
2018-04-10T09:23:49.784Z,25.10
2018-04-10T09:26:17.337Z,25.10
2018-04-10T09:28:45.013Z,24.90
2018-04-10T09:31:12.572Z,24.70
2018-04-10T09:33:40.138Z,24.70
2018-04-10T09:36:07.685Z,24.90
2018-04-10T09:38:35.257Z,25.10
2018-04-10T09:41:02.823Z,25.40
2018-04-10T09:43:30.417Z,25.90
2018-04-10T09:45:57.968Z,25.40
2018-04-10T09:48:25.505Z,25.40
2018-04-10T09:50:53.135Z,25.40
2018-04-10T09:53:20.687Z,25.30
2018-04-10T09:55:48.254Z,25.60
2018-04-10T09:58:15.965Z,25.60
2018-04-10T10:00:43.510Z,25.70
2018-04-10T10:03:11.053Z,25.40
2018-04-10T10:05:38.593Z,25.40
2018-04-10T10:08:06.147Z,25.40
2018-04-10T10:10:33.709Z,25.30
2018-04-10T10:13:01.274Z,25.30
2018-04-10T10:15:28.830Z,25.40
2018-04-10T10:17:56.386Z,25.40
2018-04-10T10:20:24.822Z,25.20
2018-04-10T10:22:52.610Z,25.20
2018-04-10T10:25:20.188Z,25.00
2018-04-10T10:27:48.513Z,24.50
2018-04-10T10:30:16.071Z,24.50
2018-04-10T10:32:44.253Z,24.40
2018-04-10T10:35:11.842Z,24.10
2018-04-10T10:37:39.385Z,24.40
2018-04-10T10:40:06.963Z,24.30
2018-04-10T10:42:34.516Z,24.50
2018-04-10T10:45:02.121Z,24.50
2018-04-10T10:47:29.679Z,24.70
2018-04-10T10:49:57.231Z,24.80
2018-04-10T10:52:24.812Z,24.90
2018-04-10T10:54:52.403Z,25.00
2018-04-10T10:57:19.959Z,25.20
2018-04-10T10:59:47.506Z,25.20
2018-04-10T11:02:15.175Z,25.30
2018-04-10T11:04:42.739Z,25.20
2018-04-10T11:07:10.279Z,25.10
2018-04-10T11:09:37.896Z,25.10
2018-04-10T11:12:05.432Z,24.90
2018-04-10T11:14:32.998Z,24.70
2018-04-10T11:17:00.587Z,24.70
2018-04-10T11:19:28.943Z,24.70
2018-04-10T11:21:56.493Z,24.70
2018-04-10T11:24:24.069Z,24.50
2018-04-10T11:26:51.629Z,24.50
2018-04-10T11:29:19.219Z,24.50
2018-04-10T11:31:46.785Z,24.20
2018-04-10T11:34:14.362Z,24.00
2018-04-10T11:36:43.052Z,24.30
2018-04-10T11:39:10.670Z,24.30
2018-04-10T11:41:38.190Z,24.30
2018-04-10T11:44:05.788Z,24.20
2018-04-10T11:46:34.105Z,23.90
2018-04-10T11:49:01.668Z,23.80
2018-04-10T11:51:29.217Z,23.90
2018-04-10T11:53:56.784Z,23.90
2018-04-10T11:56:24.318Z,23.90
2018-04-10T11:58:52.658Z,23.40
2018-04-10T12:01:20.224Z,23.30
2018-04-10T12:03:47.780Z,23.50
2018-04-10T12:06:15.360Z,23.40
2018-04-10T12:08:43.247Z,23.40
2018-04-10T12:11:11.593Z,22.60
2018-04-10T12:13:39.163Z,22.60
2018-04-10T12:16:06.798Z,22.50
2018-04-10T12:18:34.340Z,22.10
2018-04-10T12:21:01.962Z,21.70
2018-04-10T12:23:30.314Z,21.80
2018-04-10T12:25:57.853Z,21.70
2018-04-10T12:28:25.447Z,20.90
2018-04-10T12:30:53.015Z,20.70
2018-04-10T12:33:20.619Z,20.20
2018-04-10T12:35:48.162Z,20.20
2018-04-10T12:38:15.796Z,20.00
2018-04-10T12:40:44.118Z,20.10
2018-04-10T12:43:11.757Z,20.10
2018-04-10T12:45:39.317Z,20.10
2018-04-10T12:48:06.882Z,20.30
2018-04-10T12:50:34.490Z,20.60
2018-04-10T12:53:02.071Z,20.80
2018-04-10T12:55:29.662Z,21.10
2018-04-10T12:57:57.237Z,21.30
2018-04-10T13:00:24.855Z,21.50
2018-04-10T13:02:52.436Z,21.50
2018-04-10T13:05:20.054Z,21.50
2018-04-10T13:07:47.712Z,21.60
2018-04-10T13:10:15.295Z,21.80
2018-04-10T13:12:42.894Z,21.90
2018-04-10T13:15:10.492Z,22.10
2018-04-10T13:17:38.135Z,22.00
2018-04-10T13:20:06.491Z,21.90
2018-04-10T13:22:34.129Z,21.90
2018-04-10T13:25:02.484Z,21.90
2018-04-10T13:27:30.098Z,21.80
2018-04-10T13:29:57.681Z,22.10
2018-04-10T13:32:25.232Z,22.30
2018-04-10T13:34:52.824Z,22.00
2018-04-10T13:37:20.397Z,21.70
2018-04-10T13:39:48.012Z,22.00
2018-04-10T13:42:15.581Z,22.20
2018-04-10T13:44:43.224Z,22.20
2018-04-10T13:47:10.822Z,22.00
2018-04-10T13:49:38.411Z,22.00
2018-04-10T13:52:06.755Z,22.20
2018-04-10T13:54:34.367Z,22.20
2018-04-10T13:57:02.677Z,21.80
2018-04-10T13:59:30.218Z,21.80
2018-04-10T14:01:57.822Z,22.00
2018-04-10T14:04:25.494Z,22.00
2018-04-10T14:06:53.096Z,22.30
2018-04-10T14:09:20.726Z,22.20
2018-04-10T14:11:48.471Z,22.20
2018-04-10T14:14:16.069Z,22.00
2018-04-10T14:16:43.636Z,21.80
2018-04-10T14:19:11.991Z,21.60
2018-04-10T14:21:39.571Z,21.60
2018-04-10T14:24:07.371Z,21.70
2018-04-10T14:26:34.983Z,21.90
2018-04-10T14:29:02.542Z,21.90
2018-04-10T14:31:30.101Z,21.80
2018-04-10T14:33:57.732Z,21.90
2018-04-10T14:36:25.306Z,22.00
2018-04-10T14:38:52.926Z,21.80
2018-04-10T14:41:20.526Z,21.90
2018-04-10T14:43:48.100Z,21.80
2018-04-10T14:46:15.745Z,21.80
2018-04-10T14:48:43.307Z,21.80
2018-04-10T14:51:11.620Z,21.70
2018-04-10T14:53:39.269Z,21.80
2018-04-10T14:56:06.909Z,21.90
2018-04-10T14:58:34.513Z,21.90
2018-04-10T15:01:02.843Z,21.90
2018-04-10T15:03:30.456Z,21.90
2018-04-10T15:05:58.066Z,21.90
2018-04-10T15:08:25.866Z,21.70
2018-04-10T15:10:53.453Z,21.70
2018-04-10T15:13:21.041Z,21.70
2018-04-10T15:15:48.664Z,21.80
2018-04-10T15:18:17.008Z,21.60
2018-04-10T15:20:44.605Z,21.60
2018-04-10T15:23:12.181Z,21.50
2018-04-10T15:25:39.773Z,21.30
2018-04-10T15:28:07.391Z,21.20
2018-04-10T15:30:34.980Z,21.10
2018-04-10T15:33:03.138Z,21.00
2018-04-10T15:35:30.842Z,20.90
2018-04-10T15:37:58.437Z,20.90
2018-04-10T15:40:27.018Z,20.80
2018-04-10T15:42:55.354Z,20.60
2018-04-10T15:45:22.958Z,20.60
2018-04-10T15:47:50.611Z,20.60
2018-04-10T15:50:18.205Z,20.60
2018-04-10T15:52:45.805Z,20.50
2018-04-10T15:55:13.383Z,20.50
2018-04-10T15:57:41.006Z,20.50
2018-04-10T16:00:08.574Z,20.50
2018-04-10T16:02:36.147Z,20.50
2018-04-10T16:05:03.825Z,20.50
2018-04-10T16:07:31.395Z,20.50
2018-04-10T16:09:58.975Z,20.50
2018-04-10T16:12:27.336Z,20.40
2018-04-10T16:14:55.658Z,20.40
2018-04-10T16:17:23.283Z,20.40
2018-04-10T16:19:50.864Z,20.40
2018-04-10T16:22:18.449Z,20.40
2018-04-10T16:24:46.089Z,20.30
2018-04-10T16:27:13.696Z,20.20
2018-04-10T16:29:41.318Z,20.20
2018-04-10T16:32:08.910Z,20.10
2018-04-10T16:34:36.475Z,20.10
2018-04-10T16:37:04.066Z,20.00
2018-04-10T16:39:34.716Z,19.90
2018-04-10T16:42:03.092Z,19.90
2018-04-10T16:44:31.445Z,19.80
2018-04-10T16:46:58.991Z,19.80
2018-04-10T16:49:26.631Z,19.70
2018-04-10T16:51:54.962Z,19.70
2018-04-10T16:54:23.311Z,19.70
2018-04-10T16:56:50.922Z,19.70
2018-04-10T16:59:18.758Z,19.60
2018-04-10T17:01:46.341Z,19.60
2018-04-10T17:04:14.718Z,19.50
2018-04-10T17:06:43.207Z,19.50
2018-04-10T17:09:11.570Z,19.40
2018-04-10T17:11:39.911Z,19.40
2018-04-10T17:14:07.480Z,19.40
2018-04-10T17:16:35.082Z,19.40
2018-04-10T17:19:03.418Z,19.20
2018-04-10T17:21:31.057Z,19.20
2018-04-10T17:23:58.619Z,19.20
2018-04-10T17:26:26.226Z,19.10
2018-04-10T17:28:54.737Z,18.90
2018-04-10T17:31:22.346Z,18.80
2018-04-10T17:33:49.893Z,18.70
2018-04-10T17:36:17.528Z,18.70
2018-04-10T17:38:45.159Z,18.70
2018-04-10T17:41:12.689Z,18.60
2018-04-10T17:43:40.305Z,18.60
2018-04-10T17:46:07.968Z,18.50
2018-04-10T17:48:36.317Z,18.30
2018-04-10T17:51:04.719Z,18.30
2018-04-10T17:53:32.290Z,18.30
2018-04-10T17:56:00.688Z,18.30
2018-04-10T17:58:28.262Z,18.20
2018-04-10T18:00:55.834Z,18.10
2018-04-10T18:03:23.479Z,18.10
2018-04-10T18:05:51.062Z,18.00
2018-04-10T18:08:18.637Z,18.00
2018-04-10T18:10:46.272Z,17.90
2018-04-10T18:13:13.837Z,17.80
2018-04-10T18:15:41.413Z,17.70
2018-04-10T18:18:09.631Z,17.70
2018-04-10T18:20:37.194Z,17.70
2018-04-10T18:23:04.867Z,17.70
2018-04-10T18:25:32.465Z,17.60
2018-04-10T18:28:00.034Z,17.60
2018-04-10T18:30:27.705Z,17.50
2018-04-10T18:32:55.354Z,17.40
2018-04-10T18:35:22.937Z,17.40
2018-04-10T18:37:51.427Z,17.30
2018-04-10T18:40:19.030Z,17.20
2018-04-10T18:42:46.609Z,17.10
2018-04-10T18:45:14.572Z,17.00
2018-04-10T18:47:42.155Z,17.00
2018-04-10T18:50:10.651Z,16.90
2018-04-10T18:52:38.245Z,16.80
2018-04-10T18:55:05.840Z,16.70
2018-04-10T18:57:33.493Z,16.60
2018-04-10T19:00:01.093Z,16.60
2018-04-10T19:02:29.446Z,16.60
2018-04-10T19:04:57.067Z,16.50
2018-04-10T19:07:24.671Z,16.50
2018-04-10T19:09:52.268Z,16.50
2018-04-10T19:12:20.705Z,16.40
2018-04-10T19:14:48.308Z,16.40
2018-04-10T19:17:15.982Z,16.30
2018-04-10T19:19:43.585Z,16.30
2018-04-10T19:22:11.501Z,16.30
2018-04-10T19:24:39.835Z,16.20
2018-04-10T19:27:07.437Z,16.20
2018-04-10T19:29:35.784Z,16.20
2018-04-10T19:32:03.479Z,16.20
2018-04-10T19:34:31.838Z,16.10
2018-04-10T19:36:59.426Z,16.10
2018-04-10T19:39:27.840Z,16.10
2018-04-10T19:41:55.419Z,16.10
2018-04-10T19:44:23.006Z,15.80
2018-04-10T19:46:50.632Z,15.50
2018-04-10T19:49:18.285Z,15.30
2018-04-10T19:51:46.596Z,15.30
2018-04-10T19:54:14.177Z,15.30
2018-04-10T19:56:42.566Z,15.30
2018-04-10T19:59:10.909Z,15.30
2018-04-10T20:01:38.516Z,15.20
2018-04-10T20:04:06.200Z,15.30
2018-04-10T20:06:33.789Z,15.30
2018-04-10T20:09:01.435Z,15.20
2018-04-10T20:11:28.997Z,15.20
2018-04-10T20:13:56.569Z,15.20
2018-04-10T20:16:24.222Z,15.20
2018-04-10T20:18:52.470Z,15.20
2018-04-10T20:21:20.046Z,15.10
2018-04-10T20:23:47.712Z,15.10
2018-04-10T20:26:15.322Z,15.10
2018-04-10T20:28:43.665Z,15.10
2018-04-10T20:31:11.262Z,15.10
2018-04-10T20:33:39.833Z,15.00
2018-04-10T20:36:07.419Z,15.00
2018-04-10T20:38:35.031Z,15.00
2018-04-10T20:41:02.631Z,15.10
2018-04-10T20:43:31.001Z,15.00
2018-04-10T20:45:58.684Z,15.00
2018-04-10T20:48:26.295Z,14.90
2018-04-10T20:50:53.883Z,14.90
2018-04-10T20:53:21.513Z,14.80
2018-04-10T20:55:49.082Z,14.70
2018-04-10T20:58:16.644Z,14.70
2018-04-10T21:00:44.259Z,14.60
2018-04-10T21:03:11.867Z,14.50
2018-04-10T21:05:39.531Z,14.50
2018-04-10T21:08:07.174Z,14.40
2018-04-10T21:10:34.750Z,14.40
2018-04-10T21:13:02.628Z,14.40
2018-04-10T21:15:30.227Z,14.40
2018-04-10T21:17:58.558Z,14.20
2018-04-10T21:20:26.112Z,14.10
2018-04-10T21:22:53.710Z,14.00
2018-04-10T21:25:21.296Z,13.90
2018-04-10T21:27:48.882Z,13.80
2018-04-10T21:30:17.217Z,13.70
2018-04-10T21:32:44.814Z,13.70
2018-04-10T21:35:12.441Z,13.70
2018-04-10T21:37:40.063Z,13.60
2018-04-10T21:40:07.643Z,13.60
2018-04-10T21:42:40.828Z,13.40
2018-04-10T21:45:08.419Z,13.40
2018-04-10T21:47:36.787Z,13.40
2018-04-10T21:50:04.395Z,13.30
2018-04-10T21:52:32.000Z,13.30
2018-04-10T21:54:59.589Z,13.30
2018-04-10T21:57:27.914Z,13.30
2018-04-10T21:59:55.483Z,13.30
2018-04-10T22:02:23.086Z,13.30
2018-04-10T22:04:50.714Z,13.40
2018-04-10T22:07:18.279Z,13.40
2018-04-10T22:09:45.845Z,13.40
2018-04-10T22:12:13.477Z,13.40
2018-04-10T22:14:41.043Z,13.40
2018-04-10T22:17:08.615Z,13.40
2018-04-10T22:19:36.244Z,13.40
2018-04-10T22:22:03.812Z,13.50
2018-04-10T22:24:31.383Z,13.50
2018-04-10T22:26:59.013Z,13.40
2018-04-10T22:29:26.625Z,13.40
2018-04-10T22:31:54.251Z,13.30
2018-04-10T22:34:21.790Z,13.20
2018-04-10T22:36:49.410Z,13.10
2018-04-10T22:39:17.034Z,13.10
2018-04-10T22:41:44.679Z,13.10
2018-04-10T22:44:12.279Z,13.10
2018-04-10T22:46:39.848Z,13.10
2018-04-10T22:49:08.231Z,13.10
2018-04-10T22:51:36.570Z,13.10
2018-04-10T22:54:04.162Z,13.10
2018-04-10T22:56:32.517Z,13.20
2018-04-10T22:59:00.092Z,13.20
2018-04-10T23:01:27.674Z,13.30
2018-04-10T23:03:56.014Z,13.30
2018-04-10T23:06:23.598Z,13.20
2018-04-10T23:08:51.184Z,13.30
2018-04-10T23:11:19.582Z,13.20
2018-04-10T23:13:47.160Z,13.20
2018-04-10T23:16:14.728Z,13.20
2018-04-10T23:18:42.320Z,13.20
2018-04-10T23:21:09.894Z,13.20
2018-04-10T23:23:37.559Z,13.20
2018-04-10T23:26:05.197Z,13.20
2018-04-10T23:28:32.804Z,13.30
2018-04-10T23:31:01.176Z,13.30
2018-04-10T23:33:28.780Z,13.30
2018-04-10T23:35:56.366Z,13.30
2018-04-10T23:38:23.929Z,13.30
2018-04-10T23:40:51.557Z,13.30
2018-04-10T23:43:19.120Z,13.30
2018-04-10T23:45:46.719Z,13.40
2018-04-10T23:48:14.361Z,13.30
2018-04-10T23:50:41.945Z,13.30
2018-04-10T23:53:09.522Z,13.30
2018-04-10T23:55:37.135Z,13.40
2018-04-10T23:58:04.721Z,13.40
